createdAt,value
2022-11-15T17:46:02.156Z,11.40
2022-11-15T17:47:02.109Z,10.10
2022-11-15T17:48:02.089Z,10.80
2022-11-15T17:49:02.051Z,10.50
2022-11-15T17:50:02.020Z,10.20
2022-11-15T17:51:01.992Z,11.70
2022-11-15T17:52:01.964Z,12.70
2022-11-15T17:53:01.937Z,12.40
2022-11-15T17:54:01.906Z,10.40
2022-11-15T17:55:01.882Z,10.50
2022-11-15T17:56:01.850Z,11.40
2022-11-15T17:57:01.825Z,14.30
2022-11-15T17:58:01.793Z,11.00
2022-11-15T17:59:01.763Z,11.10
2022-11-15T18:00:01.737Z,11.80
2022-11-15T18:01:01.760Z,10.20
2022-11-15T18:02:01.695Z,10.30
2022-11-15T18:03:01.649Z,13.70
2022-11-15T18:04:01.617Z,11.20
2022-11-15T18:05:01.593Z,13.90
2022-11-15T18:06:01.560Z,12.90
2022-11-15T18:07:01.620Z,11.60
2022-11-15T18:08:01.503Z,12.20
2022-11-15T18:09:01.481Z,14.00
2022-11-15T18:10:01.501Z,13.00
2022-11-15T18:11:01.435Z,12.30
2022-11-15T18:12:01.388Z,11.70
2022-11-15T18:13:01.361Z,12.60
2022-11-15T18:14:01.334Z,13.00
2022-11-15T18:15:01.341Z,12.20
2022-11-15T18:16:01.275Z,12.60
2022-11-15T18:17:01.246Z,12.80
2022-11-15T18:18:01.253Z,14.20
2022-11-15T18:19:01.188Z,13.80
2022-11-15T18:20:01.158Z,15.40
2022-11-15T18:21:01.131Z,13.10
2022-11-15T18:22:01.100Z,12.80
2022-11-15T18:23:01.073Z,13.80
2022-11-15T18:24:01.044Z,13.30
2022-11-15T18:25:01.015Z,14.30
2022-11-15T18:26:00.986Z,11.50
2022-11-15T18:27:00.957Z,14.60
2022-11-15T18:28:00.927Z,13.00
2022-11-15T18:29:00.900Z,14.20
2022-11-15T18:30:00.870Z,13.30
2022-11-15T18:31:00.841Z,17.30
2022-11-15T18:32:00.815Z,15.10
2022-11-15T18:33:00.785Z,14.10
2022-11-15T18:34:00.788Z,14.20
2022-11-15T18:35:00.726Z,15.00
2022-11-15T18:36:00.697Z,15.30
2022-11-15T18:37:00.670Z,13.40
2022-11-15T18:38:00.641Z,15.20
2022-11-15T18:39:00.611Z,15.20
2022-11-15T18:40:00.581Z,13.70
2022-11-15T18:41:00.554Z,13.30
2022-11-15T18:42:00.529Z,14.60
2022-11-15T18:43:00.495Z,13.50
2022-11-15T18:44:00.466Z,15.40
2022-11-15T18:45:00.440Z,16.10
2022-11-15T18:46:00.407Z,15.60
2022-11-15T18:47:00.379Z,16.20
2022-11-15T18:48:00.352Z,17.00
2022-11-15T18:49:00.327Z,15.00
2022-11-15T18:50:00.323Z,14.30
2022-11-15T18:51:04.725Z,15.30
2022-11-15T18:52:00.236Z,14.40
2022-11-15T18:53:00.207Z,15.50
2022-11-15T18:54:00.177Z,16.30
2022-11-15T18:55:00.150Z,13.40
2022-11-15T18:56:00.118Z,13.60
2022-11-15T18:57:00.110Z,15.90
2022-11-15T18:58:00.061Z,15.30
2022-11-15T18:59:00.035Z,16.30
2022-11-15T19:00:00.002Z,14.90
2022-11-15T19:01:00.041Z,15.10
2022-11-15T19:01:59.944Z,14.70
2022-11-15T19:02:59.921Z,16.00
2022-11-15T19:03:59.887Z,16.30
2022-11-15T19:04:59.861Z,15.40
2022-11-15T19:05:59.848Z,14.00
2022-11-15T19:06:59.877Z,15.80
2022-11-15T19:07:59.772Z,17.20
2022-11-15T19:08:59.744Z,15.10
2022-11-15T19:09:59.713Z,17.70
2022-11-15T19:10:59.686Z,16.90
2022-11-15T19:11:59.657Z,17.90
2022-11-15T19:12:59.628Z,15.10
2022-11-15T19:13:59.611Z,14.70
2022-11-15T19:14:59.569Z,18.00
2022-11-15T19:15:59.542Z,15.80
2022-11-15T19:16:59.512Z,16.10
2022-11-15T19:17:59.482Z,16.60
2022-11-15T19:18:59.454Z,17.50
2022-11-15T19:19:59.428Z,18.80
2022-11-15T19:20:59.400Z,19.10
2022-11-15T19:21:59.385Z,18.70
2022-11-15T19:22:59.338Z,17.60
2022-11-15T19:23:59.311Z,16.60
2022-11-15T19:24:59.281Z,18.00
2022-11-15T19:25:59.250Z,15.90
2022-11-15T19:26:59.225Z,17.30
2022-11-15T19:27:59.194Z,17.40
2022-11-15T19:28:59.176Z,18.40
2022-11-15T19:29:59.135Z,18.20
2022-11-15T19:30:59.108Z,16.20
2022-11-15T19:31:59.077Z,15.90
2022-11-15T19:32:59.051Z,20.30
2022-11-15T19:33:59.020Z,16.90
2022-11-15T19:34:58.991Z,19.20
2022-11-15T19:35:58.962Z,17.10
2022-11-15T19:36:58.934Z,18.30
2022-11-15T19:37:58.922Z,15.90
2022-11-15T19:38:58.875Z,16.50
2022-11-15T19:39:58.847Z,22.00
2022-11-15T19:40:58.817Z,17.40
2022-11-15T19:41:58.787Z,17.10
2022-11-15T19:42:58.761Z,18.20
2022-11-15T19:43:58.732Z,18.00
2022-11-15T19:44:58.701Z,17.20
2022-11-15T19:46:02.282Z,17.20
2022-11-15T19:46:58.643Z,19.30
2022-11-15T19:47:58.614Z,19.10
2022-11-15T19:48:58.586Z,18.40
2022-11-15T19:49:58.555Z,18.80
2022-11-15T19:50:58.527Z,18.50
2022-11-15T19:51:58.497Z,16.90
2022-11-15T19:52:58.471Z,21.50
2022-11-15T19:53:58.458Z,16.90
2022-11-15T19:54:58.411Z,17.10
2022-11-15T19:55:58.382Z,16.70
2022-11-15T19:56:58.353Z,17.50
2022-11-15T19:57:58.323Z,16.80
2022-11-15T19:58:58.296Z,15.80
2022-11-15T20:00:01.865Z,17.40
2022-11-15T20:00:58.268Z,17.50
2022-11-15T20:01:58.206Z,20.80
2022-11-15T20:02:58.178Z,16.10
2022-11-15T20:03:58.149Z,19.50
2022-11-15T20:04:58.121Z,18.30
2022-11-15T20:05:58.090Z,18.00
2022-11-15T20:06:58.112Z,16.80
2022-11-15T20:07:58.033Z,17.00
2022-11-15T20:08:58.006Z,14.80
2022-11-15T20:09:57.993Z,17.70
2022-11-15T20:10:57.946Z,15.70
2022-11-15T20:11:57.916Z,15.60
2022-11-15T20:12:57.888Z,15.90
2022-11-15T20:13:57.858Z,18.00
2022-11-15T20:14:57.830Z,17.60
2022-11-15T20:15:57.801Z,15.90
2022-11-15T20:16:57.774Z,16.00
2022-11-15T20:17:57.743Z,17.20
2022-11-15T20:18:57.716Z,16.50
2022-11-15T20:19:57.684Z,16.00
2022-11-15T20:20:57.656Z,17.40
2022-11-15T20:21:57.628Z,15.10
2022-11-15T20:23:02.293Z,16.30
2022-11-15T20:23:57.569Z,16.90
2022-11-15T20:24:57.540Z,17.10
2022-11-15T20:25:57.527Z,18.50
2022-11-15T20:26:57.481Z,16.30
2022-11-15T20:27:57.453Z,16.50
2022-11-15T20:28:57.422Z,17.20
2022-11-15T20:29:57.392Z,16.10
2022-11-15T20:30:57.366Z,15.40
2022-11-15T20:31:57.335Z,15.80
2022-11-15T20:32:57.308Z,17.70
2022-11-15T20:33:57.276Z,18.20
2022-11-15T20:34:57.249Z,16.20
2022-11-15T20:35:57.221Z,17.00
2022-11-15T20:36:57.192Z,18.00
2022-11-15T20:37:57.160Z,16.90
2022-11-15T20:38:57.135Z,15.10
2022-11-15T20:39:57.103Z,14.30
2022-11-15T20:41:00.218Z,16.00
2022-11-15T20:41:57.063Z,14.90
2022-11-15T20:42:57.017Z,17.10
2022-11-15T20:43:56.988Z,16.70
2022-11-15T20:44:56.959Z,15.70
2022-11-15T20:45:56.929Z,15.20
2022-11-15T20:46:56.901Z,15.50
2022-11-15T20:47:56.871Z,16.30
2022-11-15T20:48:56.844Z,15.20
2022-11-15T20:50:05.782Z,15.10
2022-11-15T20:50:56.785Z,17.90
2022-11-15T20:51:56.757Z,15.00
2022-11-15T20:52:56.728Z,16.90
2022-11-15T20:53:56.699Z,14.80
2022-11-15T20:54:56.671Z,15.90
2022-11-15T20:55:56.640Z,15.90
2022-11-15T20:56:56.612Z,15.40
2022-11-15T20:57:56.602Z,16.30
2022-11-15T20:58:56.587Z,14.60
2022-11-15T20:59:56.616Z,16.30
2022-11-15T21:00:56.636Z,15.30
2022-11-15T21:01:56.601Z,17.30
2022-11-15T21:02:56.439Z,14.10
2022-11-15T21:03:56.414Z,15.70
2022-11-15T21:04:56.382Z,16.40
2022-11-15T21:05:56.351Z,19.20
2022-11-15T21:06:56.377Z,14.30
2022-11-15T21:07:56.293Z,18.90
2022-11-15T21:08:56.268Z,14.00
2022-11-15T21:09:56.262Z,14.80
2022-11-15T21:10:56.216Z,15.40
2022-11-15T21:11:56.184Z,17.60
2022-11-15T21:12:56.160Z,15.00
2022-11-15T21:13:56.138Z,15.60
2022-11-15T21:14:56.093Z,15.10
2022-11-15T21:15:56.063Z,17.40
2022-11-15T21:16:56.035Z,17.10
2022-11-15T21:17:56.005Z,16.10
2022-11-15T21:18:55.977Z,16.30
2022-11-15T21:19:55.949Z,15.90
2022-11-15T21:20:55.922Z,16.50
2022-11-15T21:21:55.891Z,16.10
2022-11-15T21:22:55.863Z,15.80
2022-11-15T21:23:55.834Z,16.00
2022-11-15T21:24:55.806Z,14.10
2022-11-15T21:25:55.776Z,17.10
2022-11-15T21:26:55.749Z,16.10
2022-11-15T21:27:55.719Z,14.00
2022-11-15T21:28:55.691Z,14.50
2022-11-15T21:29:55.681Z,16.30
2022-11-15T21:30:55.634Z,15.60
2022-11-15T21:31:55.605Z,16.00
2022-11-15T21:32:55.576Z,16.30
2022-11-15T21:33:55.546Z,14.20
2022-11-15T21:34:55.517Z,15.10
2022-11-15T21:35:55.489Z,14.60
2022-11-15T21:36:55.461Z,15.10
2022-11-15T21:37:57.127Z,13.80
2022-11-15T21:38:55.403Z,14.80
2022-11-15T21:39:55.374Z,17.20
2022-11-15T21:40:55.346Z,14.20
2022-11-15T21:41:55.317Z,14.80
2022-11-15T21:42:55.288Z,13.40
2022-11-15T21:43:55.259Z,15.00
2022-11-15T21:44:55.231Z,15.00
2022-11-15T21:45:55.219Z,17.60
2022-11-15T21:46:55.173Z,15.70
2022-11-15T21:47:55.144Z,18.50
2022-11-15T21:48:55.117Z,17.50
2022-11-15T21:49:55.085Z,19.00
2022-11-15T21:50:55.059Z,16.70
2022-11-15T21:51:55.030Z,17.90
2022-11-15T21:52:55.002Z,19.10
2022-11-15T21:53:54.971Z,15.80
2022-11-15T21:54:54.944Z,17.90
2022-11-15T21:55:54.916Z,16.60
2022-11-15T21:56:54.897Z,17.90
2022-11-15T21:57:54.858Z,14.50
2022-11-15T21:58:54.833Z,16.10
2022-11-15T21:59:54.800Z,15.90
2022-11-15T22:00:54.867Z,15.60
2022-11-15T22:01:54.767Z,15.00
2022-11-15T22:02:54.713Z,15.20
2022-11-15T22:03:54.692Z,14.80
2022-11-15T22:04:54.657Z,13.80
2022-11-15T22:05:54.632Z,15.80
2022-11-15T22:06:54.659Z,14.50
2022-11-15T22:07:54.571Z,15.40
2022-11-15T22:08:54.548Z,16.90
2022-11-15T22:09:54.522Z,16.20
2022-11-15T22:10:54.484Z,17.00
2022-11-15T22:11:54.456Z,14.90
2022-11-15T22:12:54.427Z,15.40
2022-11-15T22:13:54.398Z,15.50
2022-11-15T22:14:54.369Z,13.90
2022-11-15T22:15:54.341Z,14.30
2022-11-15T22:16:54.312Z,15.80
2022-11-15T22:17:54.304Z,13.90
2022-11-15T22:18:54.256Z,13.90
2022-11-15T22:19:54.228Z,16.50
2022-11-15T22:20:54.206Z,14.50
2022-11-15T22:21:54.170Z,14.90
2022-11-15T22:22:54.140Z,15.30
2022-11-15T22:23:54.112Z,15.60
2022-11-15T22:24:54.083Z,14.60
2022-11-15T22:25:54.054Z,16.00
2022-11-15T22:26:54.025Z,14.30
2022-11-15T22:27:53.999Z,17.50
2022-11-15T22:28:53.967Z,16.50
2022-11-15T22:29:53.939Z,18.20
2022-11-15T22:30:53.911Z,15.50
2022-11-15T22:31:53.882Z,17.90
2022-11-15T22:32:53.852Z,16.30
2022-11-15T22:33:53.841Z,15.50
2022-11-15T22:34:53.795Z,18.00
2022-11-15T22:35:53.768Z,16.10
2022-11-15T22:37:19.049Z,16.60
2022-11-15T22:37:53.709Z,16.50
2022-11-15T22:38:53.679Z,16.30
2022-11-15T22:39:53.651Z,17.20
2022-11-15T22:40:53.624Z,14.70
2022-11-15T22:41:53.595Z,15.40
2022-11-15T22:42:53.564Z,16.80
2022-11-15T22:43:53.537Z,14.60
2022-11-15T22:44:53.516Z,15.50
2022-11-15T22:45:53.480Z,15.00
2022-11-15T22:46:53.449Z,16.30
2022-11-15T22:47:53.422Z,15.90
2022-11-15T22:48:53.392Z,16.00
2022-11-15T22:49:53.386Z,15.00
2022-11-15T22:50:53.336Z,16.30
2022-11-15T22:51:53.308Z,17.70
2022-11-15T22:52:53.278Z,16.40
2022-11-15T22:53:53.250Z,16.00
2022-11-15T22:54:53.222Z,15.90
2022-11-15T22:55:53.196Z,19.00
2022-11-15T22:56:53.164Z,17.90
2022-11-15T22:57:53.135Z,16.10
2022-11-15T22:58:53.111Z,20.90
2022-11-15T22:59:53.078Z,16.60
2022-11-15T23:00:53.052Z,17.30
2022-11-15T23:01:53.022Z,15.70
2022-11-15T23:02:54.387Z,15.30
2022-11-15T23:03:53.029Z,17.60
2022-11-15T23:04:52.936Z,15.40
2022-11-15T23:05:52.925Z,16.20
2022-11-15T23:06:52.962Z,18.20
2022-11-15T23:07:52.847Z,15.80
2022-11-15T23:08:52.818Z,17.00
2022-11-15T23:09:52.790Z,15.80
2022-11-15T23:10:52.787Z,17.60
2022-11-15T23:11:52.733Z,18.00
2022-11-15T23:12:53.721Z,16.00
2022-11-15T23:13:52.675Z,18.80
2022-11-15T23:14:52.645Z,16.10
2022-11-15T23:15:52.618Z,16.90
2022-11-15T23:16:52.588Z,16.10
2022-11-15T23:17:52.560Z,15.20
2022-11-15T23:18:52.532Z,16.40
2022-11-15T23:19:52.503Z,18.30
2022-11-15T23:20:52.473Z,15.40
2022-11-15T23:21:52.464Z,15.60
2022-11-15T23:22:52.416Z,18.90
2022-11-15T23:23:52.388Z,17.60
2022-11-15T23:24:52.359Z,20.90
2022-11-15T23:25:52.331Z,17.10
2022-11-15T23:26:52.303Z,16.80
2022-11-15T23:27:52.275Z,19.30
2022-11-15T23:28:52.245Z,18.30
2022-11-15T23:29:52.216Z,20.00
2022-11-15T23:30:52.186Z,21.40
2022-11-15T23:32:01.123Z,21.30
2022-11-15T23:32:52.131Z,22.30
2022-11-15T23:33:52.102Z,19.20
2022-11-15T23:34:52.072Z,17.90
2022-11-15T23:35:52.045Z,19.60
2022-11-15T23:36:52.015Z,18.20
2022-11-15T23:37:52.006Z,19.50
2022-11-15T23:38:51.959Z,22.40
2022-11-15T23:39:51.932Z,19.40
2022-11-15T23:40:51.901Z,22.10
2022-11-15T23:41:51.878Z,22.50
2022-11-15T23:42:51.843Z,20.30
2022-11-15T23:43:51.817Z,19.10
2022-11-15T23:44:51.790Z,21.30
2022-11-15T23:45:51.758Z,18.20
2022-11-15T23:46:51.730Z,21.40
2022-11-15T23:47:54.638Z,21.50
2022-11-15T23:48:51.672Z,22.20
2022-11-15T23:49:51.644Z,20.90
2022-11-15T23:50:51.614Z,22.60
2022-11-15T23:51:51.588Z,21.00
2022-11-15T23:52:51.567Z,20.00
2022-11-15T23:53:51.549Z,20.10
2022-11-15T23:54:51.501Z,21.70
2022-11-15T23:55:51.474Z,20.20
2022-11-15T23:56:51.447Z,22.40
2022-11-15T23:57:51.417Z,21.30
2022-11-15T23:58:51.392Z,21.00
2022-11-15T23:59:51.360Z,20.70
